Brimley, MI

11:08 AM EDT on September 23, 2014 (GMT -0400)
BMCC Lake Superior | Change Station
CLOSE
Current Station
Personal Weather Station
Location: Brimley, MI
Elevation: 645 ft
Nearby Weather Stations

Elev 645 ft 46.45 °N, 84.61 °W | Updated 7 seconds ago

Clear
Clear
61.6 °F
Feels Like 61.6 °F
N
5.6
Wind Variable Wind from WNW
Gusts 16.8 mph

Today
High -- | Low -- °F
--% Chance of Precip.
Yesterday
High -- | Low -- °F
Precip. -- in
7:26 AM 7:34 PM
Waning Crescent, 0% visible
Pressure 30.21 in
Visibility 10.0 miles
Clouds Clear
Dew Point 54 °F
Humidity 76%
Rainfall 0.00 in
Snow Depth Not available.
UV 4 out of 12
Pollen 3.50 out of 12
Ozone Good
PM2.5 Good
Flu Activity Not available.
METAR KANJ 231455Z AUTO 30003KT 10SM CLR 16/11 A3021 RMK AO2 SLP229 T01610111 53015

More Conditions Fewer Conditions

Pressure 30.21 in
Visibility 10.0 miles
Clouds Clear
Dew Point 54 °F
Humidity 76%
Rainfall 0.00 in
Snow Depth Not available.
UV 4 out of 12
Pollen 3.50 out of 12
Ozone Good
PM2.5 Good
Flu Activity Not available.
METAR KANJ 231455Z AUTO 30003KT 10SM CLR 16/11 A3021 RMK AO2 SLP229 T01610111 53015

More Conditions Fewer Conditions

Nowcast | as of 11:00 am EDT on September 23, 2014

At 12 PM...mostly clear. Temperature 61. West winds 6 mph. At 2 PM...mostly clear. Temperature 65. West winds 7 mph. At 4 PM...mostly clear. Temperature 68. West winds 6 mph. At 6 PM...mostly clear. Temperature 66. West winds 6 mph.

×

10-Day Weather Forecast

Almanac

Astronomy

Sep. 23, 2014 Rise Set
Actual Time 7:26 AM EDT 7:34 PM EDT
Civil Twilight 6:56 AM EDT 8:04 PM EDT
Nautical Twilight 6:21 AM EDT 8:39 PM EDT
Astronomical Twilight 5:44 AM EDT 9:15 PM EDT
Moon 6:49 AM EDT 7:11 PM EDT
Length of Visible Light 13h 07m
Length of Day
12h 07m
Tomorrow will be 3m 16s shorter.
Waning Crescent, 0% of the Moon is Illuminated
Today
Waning Crescent
Sep 24
New
Oct 1
First Quarter
Oct 8
Full
Oct 15
Last Quarter

Today's Extremes

State Highs State Lows

Community

WunderPhotos

Upload Photos

1,755,716 photos uploaded!

Nearby

Air Quality

  Air Quality AQ Index Pollutant
Yesterday Good
OZONE
Yesterday Good
PM2.5
Current Good
PM2.5
Current Good
OZONE
Tuesday Good
OZONE
Tuesday Good
PM2.5
Wednesday Good
OZONE
Wednesday Good
PM2.5
Thursday Good
OZONE
Thursday Good
PM2.5
Friday Good
OZONE
Friday Good
PM2.5
Saturday Good
OZONE
Saturday Good
PM2.5

Snow Depth

Station Depth Elevation
No new snow has been reported.

Earthquake Activity

City Distance Mag. Time & Date
No recent earthquake activity has been reported nearby.
Minimum magnitude displayed is 2.5.

Coastal Water Temperatures

Place Temperature
De Tour Village, MI 55.9 °F
Rock Cut, MI 55.9 °F
Little Rapids, MI 57.0 °F
S W Pier, MI 57.9 °F
West Neebish, MI 57.0 °F

Nearby Weather Stations